Portada
METAR-TAF:

METAR-TAF

Aeropuertos :

Valladolid, España

Aeropuerto de Valladolid

latitud: 41-43N, longitud: 004-51W, altitud: 849 m

Observación

El informe se hizo hace 16 minutos, a las 08:00 UTC
Viento 2 kt con dirección variable
Temperatura 7°C
Humedad 93%
Presión 1026 hPa
Visibilidad 10 km o más
Nubes dispersas a una altura de 2800 ft

METAR: LEVD 280800Z VRB02KT 9999 SCT028 07/06 Q1026

Hora: 10:16 (08:16 UTC)

Pronóstico

El informe se hizo hace 3 horas y 16 minutos, a las 05:00 UTC
Pronóstico válido del 28 a las 06 UTC al 29 a las 06 UTC
Viento 6 kt del suroeste
Visibilidad 10 km o más
Nubes dispersas a una altura de 3500 ft
Probabilidad 40% :
Temporalmente
del 28 a las 06 UTC al 28 a las 09 UTC
Visibilidad: 1500 m
Cielo nuboso a una altura de 800 ft
neblina

TAF: LEVD 280500Z 2806/2906 23006KT 9999 SCT035 TX16/2815Z TN04/2906Z PROB40 TEMPO 2806/2809 1500 BR BKN008

Observaciones y pronósticos meteorológicos de más de 4000 aeropuertos (mensajes METAR y TAF).

Los puntos amarillos y rojos representan las estaciones disponibles.

Ponga el ratón en el punto deseado para ver el nombre de la estación.

Haga clic para ver las observaciones y los pronósticos meteorológicos.

Para cambiar el mapa : haga clic en los botones verdes con una cruz de color negro para hacer un zoom, en el botón verde con un guión para alejar o en las flechas verdes para mapas adyacentes.


METAR-TAF: